Arctic Bay — 9HTD8 — position and weather

sailwx.info

Track history (hours):
 
Tides and Currents Weather Stations Pressure Air Temp Water Temp Dewpoint Dewpoint Depression Visibility Wind Speed Wind Dir Waves Ship Positions

Arctic Bay

Last reported at 2014-Oct-01 00:21 UTC. Time now 2014-Oct-01 08:19 UTC.
Position N 54°26' E 004°39'.

Length 182 m; draft 12.7 m.

Type: Ship. MMSI: 256396000.

Date/timePositionNaut miles runAvg speedWind from/ knotsBaromVisibWave heightAir tempDewpointWater temp
2014-Oct-01 00:21N 54°26' E 004°39'1012.8
2014-Sep-30 23:33N 54°35' E 004°47'18512.3
2014-Sep-30 08:31N 57°09' E 007°48'2812.0
2014-Sep-30 06:09N 57°27' E 008°29'711.6
2014-Sep-30 05:33N 57°31' E 008°40'1211.7
2014-Sep-30 04:33N 57°35' E 009°00'1211.8
2014-Sep-30 03:33N 57°40' E 009°21'1211.8
2014-Sep-30 02:33N 57°44' E 009°41'1211.9
2014-Sep-30 01:33N 57°48' E 010°02'1211.8
2014-Sep-30 00:33N 57°48' E 010°24'1211.6
2014-Sep-29 23:33N 57°48' E 010°46'1211.7
2014-Sep-29 22:33N 57°40' E 011°01'1313.1
2014-Sep-29 21:34N 57°31' E 011°19'1312.8
2014-Sep-29 20:33N 57°20' E 011°31'1613.3
2014-Sep-29 19:22N 57°05' E 011°41'1113.2
2014-Sep-29 18:33N 56°55' E 011°47'1212.1
2014-Sep-29 17:33N 56°43' E 011°51'5813.2
2014-Sep-29 13:09N 55°54' E 010°54'911.4
2014-Sep-29 12:24N 55°47' E 010°48'5110.5
2014-Sep-29 07:33N 54°56' E 010°53'1110.6
2014-Sep-29 06:30N 54°45' E 010°48'9 9.8
2014-Sep-29 05:32N 54°37' E 010°57'1110.9
2014-Sep-29 04:33N 54°35' E 011°15'1111.1
2014-Sep-29 03:33N 54°30' E 011°32'1110.7
2014-Sep-29 02:33N 54°27' E 011°50'1211.7
2014-Sep-29 01:33N 54°27' E 012°10'1110.7
2014-Sep-29 00:34N 54°37' E 012°17'1110.7
2014-Sep-28 23:33N 54°43' E 012°32'1110.9
2014-Sep-28 22:32N 54°48' E 012°49'1211.8
2014-Sep-28 21:33N 54°53' E 013°08'1212.4
2014-Sep-28 20:33N 54°57' E 013°28'1211.9
2014-Sep-28 19:33N 55°01' E 013°47'1211.5
2014-Sep-28 18:33N 55°05' E 014°06'1211.6
2014-Sep-28 17:33N 55°15' E 014°18'1211.8
2014-Sep-28 16:33N 55°23' E 014°32'1111.2
2014-Sep-28 15:33N 55°30' E 014°48'1111.0
2014-Sep-28 14:33N 55°35' E 015°05'1311.8
2014-Sep-28 13:29N 55°39' E 015°26'3511.8
2014-Sep-28 10:33N 55°48' E 016°25'  
2014-Sep-23 03:05N 55°33' E 015°19'7 9.0
2014-Sep-23 02:21N 55°31' E 015°08'7 8.9
2014-Sep-23 01:33N 55°28' E 014°57'9 8.9
2014-Sep-23 00:33N 55°24' E 014°43'9 8.5
2014-Sep-22 23:33N 55°18' E 014°33'8 8.3
2014-Sep-22 22:33N 55°12' E 014°23'46 9.2
2014-Sep-22 17:33N 55°14' E 013°03'10 9.8
2014-Sep-22 16:33N 55°16' E 012°46'9 8.6
2014-Sep-22 15:30N 55°24' E 012°39'1212.4
2014-Sep-22 14:33N 55°36' E 012°42'1313.2
2014-Sep-22 13:34N 55°49' E 012°42'1313.0
2014-Sep-22 12:33N 56°02' E 012°38'1110.8
2014-Sep-22 11:34N 56°09' E 012°25'1110.8
2014-Sep-22 10:33N 56°16' E 012°09'1010.0
2014-Sep-22 09:34N 56°25' E 012°01'10 9.4
2014-Sep-22 08:32N 56°34' E 011°57'1212.2
2014-Sep-22 07:33N 56°46' E 011°52'1313.3
2014-Sep-22 06:32N 56°58' E 011°44'1111.0
2014-Sep-22 05:32N 57°09' E 011°37'1111.5
2014-Sep-22 04:34N 57°19' E 011°30'1211.6
2014-Sep-22 03:34N 57°30' E 011°20'1111.5
2014-Sep-22 02:34N 57°37' E 011°04'1111.4
2014-Sep-22 01:34N 57°45' E 010°49'1311.3
2014-Sep-22 00:25N 57°47' E 010°25'156 7.9
2014-Sep-21 04:34N 56°02' E 006°52'9 8.7
2014-Sep-21 03:33N 55°55' E 006°44'  
Track history (hours):
 
Tides and Currents Weather Stations Pressure Air Temp Water Temp Dewpoint Dewpoint Depression Visibility Wind Speed Wind Dir Waves Ship Positions

Arctic Bay

Last reported at 2014-Oct-01 00:21 UTC. Time now 2014-Oct-01 08:19 UTC.
Position N 54°26' E 004°39'.

Length 182 m; draft 12.7 m.

Type: Ship. MMSI: 256396000.

Date/timePositionNaut miles runAvg speedWind from/ knotsBaromVisibWave heightAir tempDewpointWater temp
2014-Oct-01 00:21N 54°26' E 004°39'1012.8
2014-Sep-30 23:33N 54°35' E 004°47'18512.3
2014-Sep-30 08:31N 57°09' E 007°48'2812.0
2014-Sep-30 06:09N 57°27' E 008°29'711.6
2014-Sep-30 05:33N 57°31' E 008°40'1211.7
2014-Sep-30 04:33N 57°35' E 009°00'1211.8
2014-Sep-30 03:33N 57°40' E 009°21'1211.8
2014-Sep-30 02:33N 57°44' E 009°41'1211.9
2014-Sep-30 01:33N 57°48' E 010°02'1211.8
2014-Sep-30 00:33N 57°48' E 010°24'1211.6
2014-Sep-29 23:33N 57°48' E 010°46'1211.7
2014-Sep-29 22:33N 57°40' E 011°01'1313.1
2014-Sep-29 21:34N 57°31' E 011°19'1312.8
2014-Sep-29 20:33N 57°20' E 011°31'1613.3
2014-Sep-29 19:22N 57°05' E 011°41'1113.2
2014-Sep-29 18:33N 56°55' E 011°47'1212.1
2014-Sep-29 17:33N 56°43' E 011°51'5813.2
2014-Sep-29 13:09N 55°54' E 010°54'911.4
2014-Sep-29 12:24N 55°47' E 010°48'5110.5
2014-Sep-29 07:33N 54°56' E 010°53'1110.6
2014-Sep-29 06:30N 54°45' E 010°48'9 9.8
2014-Sep-29 05:32N 54°37' E 010°57'1110.9
2014-Sep-29 04:33N 54°35' E 011°15'1111.1
2014-Sep-29 03:33N 54°30' E 011°32'1110.7
2014-Sep-29 02:33N 54°27' E 011°50'1211.7
2014-Sep-29 01:33N 54°27' E 012°10'1110.7
2014-Sep-29 00:34N 54°37' E 012°17'1110.7
2014-Sep-28 23:33N 54°43' E 012°32'1110.9
2014-Sep-28 22:32N 54°48' E 012°49'1211.8
2014-Sep-28 21:33N 54°53' E 013°08'1212.4
2014-Sep-28 20:33N 54°57' E 013°28'1211.9
2014-Sep-28 19:33N 55°01' E 013°47'1211.5
2014-Sep-28 18:33N 55°05' E 014°06'1211.6
2014-Sep-28 17:33N 55°15' E 014°18'1211.8
2014-Sep-28 16:33N 55°23' E 014°32'1111.2
2014-Sep-28 15:33N 55°30' E 014°48'1111.0
2014-Sep-28 14:33N 55°35' E 015°05'1311.8
2014-Sep-28 13:29N 55°39' E 015°26'3511.8
2014-Sep-28 10:33N 55°48' E 016°25'  
2014-Sep-23 03:05N 55°33' E 015°19'7 9.0
2014-Sep-23 02:21N 55°31' E 015°08'7 8.9
2014-Sep-23 01:33N 55°28' E 014°57'9 8.9
2014-Sep-23 00:33N 55°24' E 014°43'9 8.5
2014-Sep-22 23:33N 55°18' E 014°33'8 8.3
2014-Sep-22 22:33N 55°12' E 014°23'46 9.2
2014-Sep-22 17:33N 55°14' E 013°03'10 9.8
2014-Sep-22 16:33N 55°16' E 012°46'9 8.6
2014-Sep-22 15:30N 55°24' E 012°39'1212.4
2014-Sep-22 14:33N 55°36' E 012°42'1313.2
2014-Sep-22 13:34N 55°49' E 012°42'1313.0
2014-Sep-22 12:33N 56°02' E 012°38'1110.8
2014-Sep-22 11:34N 56°09' E 012°25'1110.8
2014-Sep-22 10:33N 56°16' E 012°09'1010.0
2014-Sep-22 09:34N 56°25' E 012°01'10 9.4
2014-Sep-22 08:32N 56°34' E 011°57'1212.2
2014-Sep-22 07:33N 56°46' E 011°52'1313.3
2014-Sep-22 06:32N 56°58' E 011°44'1111.0
2014-Sep-22 05:32N 57°09' E 011°37'1111.5
2014-Sep-22 04:34N 57°19' E 011°30'1211.6
2014-Sep-22 03:34N 57°30' E 011°20'1111.5
2014-Sep-22 02:34N 57°37' E 011°04'1111.4
2014-Sep-22 01:34N 57°45' E 010°49'1311.3
2014-Sep-22 00:25N 57°47' E 010°25'156 7.9
2014-Sep-21 04:34N 56°02' E 006°52'9 8.7
2014-Sep-21 03:33N 55°55' E 006°44'  

Dump ship's entire track history